Saltville, Virginia
Current Conditions -  °F | °C
As of 2:15 PM on Thursday 23 Oct 2014 (Local Time) from KJFZ Reporting Station
Overcast Overcast  
Wind Chill: 49°   Ceiling: 1700
Heat Index: 49°   Visibility: 10mi
Dew Point: 41°   Wind: 3mph
Humidity: 72%   Direction: 350°N
Pressure: 30.15"   Gusts: NA
Location:  36.88°N, 81.76°W
Report Text: KJFZ 231815Z AUTO 35003KT 10SM OVC017 10/05 A3015 RMK AO2 T00960048
Loading
Personal Weather Stations






























Interactive Weather Map
Tropical Storm Tracking
New forecast layout! Learn more

10-Day Weather Forecast

Advertisements
Track Severe Weather on mobile